createdAt,value
2022-08-21T00:03:20.562Z,22.50
2022-08-21T00:08:42.832Z,22.45
2022-08-21T00:14:06.271Z,22.38
2022-08-21T00:19:28.687Z,22.26
2022-08-21T00:24:50.507Z,22.23
2022-08-21T00:30:17.713Z,22.04
2022-08-21T00:35:45.097Z,22.00
2022-08-21T00:41:36.470Z,21.98
2022-08-21T00:46:50.690Z,21.76
2022-08-21T00:52:20.259Z,21.72
2022-08-21T00:57:48.295Z,21.76
2022-08-21T01:03:15.293Z,21.67
2022-08-21T01:08:37.209Z,21.61
2022-08-21T01:14:05.747Z,21.57
2022-08-21T01:19:27.939Z,21.40
2022-08-21T01:24:49.864Z,21.35
2022-08-21T01:30:21.768Z,21.32
2022-08-21T01:35:43.625Z,21.26
2022-08-21T01:41:05.446Z,21.17
2022-08-21T01:46:27.562Z,21.18
2022-08-21T01:51:49.451Z,21.16
2022-08-21T01:57:12.574Z,21.13
2022-08-21T02:02:34.394Z,20.96
2022-08-21T02:07:56.315Z,20.99
2022-08-21T02:13:18.925Z,20.98
2022-08-21T02:18:40.780Z,20.77
2022-08-21T02:24:02.989Z,20.72
2022-08-21T02:29:24.834Z,20.73
2022-08-21T02:34:46.795Z,20.71
2022-08-21T02:40:09.137Z,20.69
2022-08-21T02:45:31.806Z,20.69
2022-08-21T02:51:00.180Z,20.65
2022-08-21T02:56:22.419Z,20.54
2022-08-21T03:01:44.431Z,20.42
2022-08-21T03:07:06.607Z,20.37
2022-08-21T03:12:33.096Z,20.35
2022-08-21T03:17:54.999Z,20.31
2022-08-21T03:23:19.104Z,20.28
2022-08-21T03:28:41.512Z,20.06
2022-08-21T03:34:03.384Z,20.15
2022-08-21T03:39:25.276Z,19.97
2022-08-21T03:44:47.143Z,19.95
2022-08-21T03:50:09.375Z,20.22
2022-08-21T03:55:31.460Z,20.38
2022-08-21T04:00:55.937Z,20.35
2022-08-21T04:06:17.757Z,20.70
2022-08-21T04:11:39.631Z,20.73
2022-08-21T04:17:01.565Z,21.27
2022-08-21T04:22:23.393Z,21.56
2022-08-21T04:27:45.511Z,22.29
2022-08-21T04:33:07.367Z,23.87
2022-08-21T04:38:36.487Z,25.33
2022-08-21T04:43:59.669Z,25.97
2022-08-21T04:49:21.481Z,27.08
2022-08-21T04:54:45.743Z,27.33
2022-08-21T05:00:12.346Z,26.33
2022-08-21T05:05:36.221Z,26.98
2022-08-21T05:11:00.539Z,27.67
2022-08-21T05:16:36.991Z,28.28
2022-08-21T05:21:59.676Z,29.73
2022-08-21T05:27:21.528Z,32.48
2022-08-21T05:32:45.601Z,34.31
2022-08-21T05:38:07.812Z,34.34
2022-08-21T05:43:40.088Z,32.84
2022-08-21T05:49:01.919Z,33.55
2022-08-21T05:54:23.759Z,33.69
2022-08-21T05:59:45.581Z,32.98
2022-08-21T06:05:07.921Z,33.14
2022-08-21T06:10:31.168Z,34.02
2022-08-21T06:16:22.363Z,34.54
2022-08-21T06:21:44.203Z,35.53
2022-08-21T06:27:07.643Z,35.01
2022-08-21T06:32:31.313Z,35.57
2022-08-21T06:37:53.143Z,36.17
2022-08-21T06:43:17.202Z,36.83
2022-08-21T06:48:39.225Z,39.07
2022-08-21T06:54:01.071Z,38.41
2022-08-21T06:59:22.962Z,37.61
2022-08-21T07:04:44.917Z,37.16
2022-08-21T07:10:07.065Z,36.92
2022-08-21T07:15:30.849Z,37.61
2022-08-21T07:20:52.934Z,35.65
2022-08-21T07:26:16.943Z,37.39
2022-08-21T07:31:38.785Z,37.54
2022-08-21T07:37:00.593Z,38.32
2022-08-21T07:42:28.260Z,38.46
2022-08-21T07:47:53.032Z,38.31
2022-08-21T07:53:18.690Z,37.94
2022-08-21T07:58:40.494Z,38.31
2022-08-21T08:04:02.476Z,38.98
2022-08-21T08:09:24.332Z,38.99
2022-08-21T08:14:46.140Z,37.68
2022-08-21T08:20:09.986Z,38.00
2022-08-21T08:25:36.667Z,35.08
2022-08-21T08:31:00.236Z,37.03
2022-08-21T08:36:33.640Z,36.99
2022-08-21T08:42:32.850Z,35.77
2022-08-21T08:48:03.558Z,35.77
2022-08-21T08:53:34.064Z,35.11
2022-08-21T08:59:02.766Z,33.78
2022-08-21T09:04:28.044Z,33.15
2022-08-21T09:10:12.552Z,30.93
2022-08-21T09:15:47.756Z,30.15
2022-08-21T09:21:27.572Z,30.88
2022-08-21T09:26:58.330Z,31.77
2022-08-21T09:32:39.938Z,30.97
2022-08-21T09:38:05.767Z,31.37
2022-08-21T09:43:27.957Z,30.27
2022-08-21T09:48:52.608Z,30.09
2022-08-21T09:54:19.062Z,29.22
2022-08-21T09:59:41.683Z,30.57
2022-08-21T10:05:16.638Z,29.71
2022-08-21T10:10:38.564Z,30.82
2022-08-21T10:16:27.707Z,29.58
2022-08-21T10:22:03.315Z,30.17
2022-08-21T10:27:46.781Z,30.14
2022-08-21T10:33:11.563Z,30.38
2022-08-21T10:38:52.700Z,30.41
2022-08-21T10:44:41.520Z,29.28
2022-08-21T10:50:21.672Z,29.43
2022-08-21T10:56:05.938Z,29.18
2022-08-21T11:01:45.875Z,29.66
2022-08-21T11:07:23.312Z,29.45
2022-08-21T11:12:56.047Z,29.38
2022-08-21T11:18:33.277Z,29.70
2022-08-21T11:24:10.173Z,29.35
2022-08-21T11:29:41.597Z,29.28
2022-08-21T11:35:21.445Z,29.24
2022-08-21T11:41:06.373Z,29.27
2022-08-21T11:47:06.128Z,29.22
2022-08-21T11:53:10.129Z,28.86
2022-08-21T11:58:43.942Z,28.70
2022-08-21T12:04:23.255Z,28.97
2022-08-21T12:09:56.132Z,30.13
2022-08-21T12:15:21.009Z,29.52
2022-08-21T12:21:01.539Z,28.45
2022-08-21T12:26:36.969Z,28.47
2022-08-21T12:32:02.235Z,28.08
2022-08-21T12:37:43.742Z,28.13
2022-08-21T12:43:12.708Z,28.55
2022-08-21T12:48:43.732Z,29.08
2022-08-21T12:54:05.556Z,28.77
2022-08-21T12:59:27.938Z,27.69
2022-08-21T13:04:51.122Z,28.22
2022-08-21T13:10:33.744Z,28.27
2022-08-21T13:16:01.380Z,27.97
2022-08-21T13:21:30.240Z,27.84
2022-08-21T13:26:53.113Z,27.47
2022-08-21T13:32:26.563Z,27.50
2022-08-21T13:37:50.575Z,27.92
2022-08-21T13:43:19.949Z,28.17
2022-08-21T13:48:43.767Z,28.18
2022-08-21T13:54:29.882Z,27.88
2022-08-21T13:59:51.930Z,27.85
2022-08-21T14:05:23.552Z,27.90
2022-08-21T14:10:56.060Z,27.89
2022-08-21T14:16:27.299Z,27.70
2022-08-21T14:21:49.368Z,27.08
2022-08-21T14:27:11.339Z,27.50
2022-08-21T14:32:44.922Z,27.59
2022-08-21T14:38:19.480Z,27.46
2022-08-21T14:43:41.307Z,27.56
2022-08-21T14:49:04.798Z,27.57
2022-08-21T14:54:31.220Z,27.63
2022-08-21T14:59:53.988Z,27.32
2022-08-21T15:05:16.522Z,27.82
2022-08-21T15:11:10.659Z,28.01
2022-08-21T15:16:31.467Z,27.80
2022-08-21T15:21:53.412Z,27.63
2022-08-21T15:27:17.593Z,27.55
2022-08-21T15:32:39.524Z,27.62
2022-08-21T15:38:01.504Z,27.40
2022-08-21T15:43:30.170Z,27.27
2022-08-21T15:48:54.431Z,26.74
2022-08-21T15:54:19.707Z,26.91
2022-08-21T15:59:46.114Z,26.79
2022-08-21T16:05:08.533Z,26.41
2022-08-21T16:10:30.426Z,26.43
2022-08-21T16:15:53.223Z,26.31
2022-08-21T16:21:15.327Z,26.20
2022-08-21T16:26:37.480Z,26.00
2022-08-21T16:31:59.401Z,26.09
2022-08-21T16:37:24.022Z,25.64
2022-08-21T16:42:46.416Z,25.39
2022-08-21T16:48:08.253Z,25.40
2022-08-21T16:53:30.128Z,25.55
2022-08-21T16:58:55.321Z,25.37
2022-08-21T17:04:17.130Z,25.21
2022-08-21T17:09:39.028Z,25.11
2022-08-21T17:15:21.590Z,25.23
2022-08-21T17:20:43.774Z,25.04
2022-08-21T17:26:05.685Z,24.94
2022-08-21T17:31:33.426Z,24.75
2022-08-21T17:36:55.586Z,24.82
2022-08-21T17:42:17.587Z,24.75
2022-08-21T17:47:39.598Z,24.48
2022-08-21T17:53:01.897Z,24.56
2022-08-21T17:58:23.800Z,24.31
2022-08-21T18:03:45.683Z,24.32
2022-08-21T18:09:08.211Z,24.32
2022-08-21T18:14:34.290Z,24.25
2022-08-21T18:19:56.436Z,24.01
2022-08-21T18:25:18.592Z,24.04
2022-08-21T18:30:42.452Z,23.99
2022-08-21T18:36:05.030Z,23.87
2022-08-21T18:41:26.873Z,23.90
2022-08-21T18:46:54.271Z,23.88
2022-08-21T18:52:17.718Z,23.86
2022-08-21T18:57:45.860Z,23.67
2022-08-21T19:03:08.523Z,23.70
2022-08-21T19:08:31.536Z,23.67
2022-08-21T19:13:53.773Z,23.64
2022-08-21T19:19:16.428Z,23.62
2022-08-21T19:24:39.643Z,23.57
2022-08-21T19:30:13.468Z,23.57
2022-08-21T19:35:53.698Z,23.47
2022-08-21T19:41:17.281Z,23.45
2022-08-21T19:46:41.907Z,23.48
2022-08-21T19:52:12.908Z,23.44
2022-08-21T19:57:37.885Z,23.40
2022-08-21T20:02:59.959Z,23.21
2022-08-21T20:08:22.503Z,23.18
2022-08-21T20:13:50.023Z,23.07
2022-08-21T20:19:12.045Z,22.96
2022-08-21T20:24:34.135Z,22.78
2022-08-21T20:29:56.046Z,22.88
2022-08-21T20:35:18.041Z,22.85
2022-08-21T20:40:40.540Z,22.44
2022-08-21T20:46:03.378Z,22.31
2022-08-21T20:51:31.470Z,22.13
2022-08-21T20:57:03.788Z,22.09
2022-08-21T21:02:38.588Z,22.00
2022-08-21T21:08:02.704Z,21.96
2022-08-21T21:13:32.736Z,21.44
2022-08-21T21:19:06.572Z,21.34
2022-08-21T21:24:41.612Z,21.45
2022-08-21T21:30:14.455Z,21.32
2022-08-21T21:35:49.171Z,21.14
2022-08-21T21:41:14.083Z,21.16
2022-08-21T21:46:54.730Z,21.21
2022-08-21T21:52:35.038Z,20.79
2022-08-21T22:04:08.046Z,20.69
2022-08-21T22:15:50.210Z,20.55
2022-08-21T22:21:22.445Z,20.82
2022-08-21T22:26:52.007Z,20.69
2022-08-21T22:32:22.950Z,20.73
2022-08-21T22:37:46.644Z,20.36
2022-08-21T22:43:15.117Z,20.28
2022-08-21T22:48:50.612Z,20.20
2022-08-21T22:54:22.155Z,20.34
2022-08-21T22:59:58.416Z,20.29
2022-08-21T23:05:30.709Z,20.01
2022-08-21T23:11:06.025Z,19.95
2022-08-21T23:17:00.913Z,19.65
2022-08-21T23:22:49.056Z,19.53
2022-08-21T23:28:25.993Z,19.43
2022-08-21T23:34:00.644Z,19.45
2022-08-21T23:39:53.193Z,19.37
2022-08-21T23:45:38.413Z,19.45
2022-08-21T23:51:11.325Z,19.29
2022-08-21T23:56:55.417Z,19.22
